Time;durP1;ratioP1;P1;durP2;ratioP2;P2;SDS_P1;SDS_P2;PMS_P1;PMS_P2;Temp;Humidity;BMP_temperature;BMP_pressure;BME280_temperature;BME280_humidity;BME280_pressure;Samples;Min_cycle;Max_cycle;Signal;HPM_P1;HPM_P2
2022/06/04 00:00:39;;;;;;;8.10;6.00;;;;;;;;;;4900371;29;20208;-83
2022/06/04 00:03:09;;;;;;;5.73;5.10;;;;;;;;;;4899978;29;20206;-83
2022/06/04 00:05:38;;;;;;;6.77;5.10;;;;;;;;;;4912729;29;20248;-83
2022/06/04 00:08:07;;;;;;;8.43;5.30;;;;;;;;;;4910316;29;20197;-83
2022/06/04 00:16:12;;;;;;;9.80;7.43;;;;;;;;;;4874535;29;20207;-83
2022/06/04 00:18:43;;;;;;;9.43;5.50;;;;;;;;;;4913629;29;20310;-83
2022/06/04 00:21:12;;;;;;;7.90;6.30;;;;;;;;;;4907946;29;20210;-83
2022/06/04 00:23:41;;;;;;;7.93;6.73;;;;;;;;;;4881388;29;20306;-83
2022/06/04 00:26:13;;;;;;;9.90;4.90;;;;;;;;;;4888737;29;20208;-83
2022/06/04 00:28:42;;;;;;;14.97;8.37;;;;;;;;;;4901647;29;20205;-83
2022/06/04 00:31:10;;;;;;;9.47;6.23;;;;;;;;;;4881132;29;20203;-83
2022/06/04 00:33:40;;;;;;;5.43;4.93;;;;;;;;;;4912484;29;20290;-83
2022/06/04 00:36:10;;;;;;;7.67;5.63;;;;;;;;;;4918540;29;20211;-83
2022/06/04 00:38:38;;;;;;;12.17;7.03;;;;;;;;;;4913610;29;20217;-81
2022/06/04 00:41:15;;;;;;;6.47;5.17;;;;;;;;;;4917372;29;20209;-81
2022/06/04 00:44:02;;;;;;;7.17;6.20;;;;;;;;;;4912654;29;20271;-82
2022/06/04 00:46:49;;;;;;;7.23;4.30;;;;;;;;;;4926995;29;20207;-82
2022/06/04 00:49:19;;;;;;;8.57;5.63;;;;;;;;;;4892150;29;20211;-82
2022/06/04 00:51:50;;;;;;;10.03;7.90;;;;;;;;;;4903317;29;20212;-82
2022/06/04 00:54:19;;;;;;;15.73;5.87;;;;;;;;;;4923346;29;20219;-82
2022/06/04 00:56:50;;;;;;;17.97;7.87;;;;;;;;;;4913589;29;20218;-83
2022/06/04 00:59:25;;;;;;;6.70;4.23;;;;;;;;;;4892255;29;20213;-83
2022/06/04 01:01:57;;;;;;;6.47;5.10;;;;;;;;;;4883578;29;20239;-83
2022/06/04 01:07:22;;;;;;;11.17;7.87;;;;;;;;;;4898628;29;20308;-83
2022/06/04 01:10:06;;;;;;;3.23;2.93;;;;;;;;;;4907061;29;20230;-82
2022/06/04 01:12:53;;;;;;;9.40;6.70;;;;;;;;;;4903206;29;20211;-83
2022/06/04 01:15:27;;;;;;;10.53;5.73;;;;;;;;;;4916968;29;20216;-82
2022/06/04 01:18:00;;;;;;;9.57;7.20;;;;;;;;;;4882072;29;20204;-82
2022/06/04 01:20:34;;;;;;;8.13;6.53;;;;;;;;;;4913347;29;20208;-82
2022/06/04 01:23:21;;;;;;;5.13;4.13;;;;;;;;;;4916165;29;20207;-83
2022/06/04 01:25:51;;;;;;;6.47;4.20;;;;;;;;;;4931843;29;20211;-82
2022/06/04 01:28:21;;;;;;;8.63;5.87;;;;;;;;;;4908720;29;20227;-82
2022/06/04 01:30:51;;;;;;;9.03;8.00;;;;;;;;;;4913155;29;20271;-82
2022/06/04 01:33:21;;;;;;;10.13;8.50;;;;;;;;;;4898645;29;20207;-83
2022/06/04 01:35:53;;;;;;;5.17;3.93;;;;;;;;;;4926177;29;20211;-82
2022/06/04 01:38:24;;;;;;;5.97;5.40;;;;;;;;;;4881673;29;20207;-83
2022/06/04 01:41:05;;;;;;;5.00;4.23;;;;;;;;;;4881934;29;20203;-82
2022/06/04 01:43:38;;;;;;;11.10;5.10;;;;;;;;;;4914374;29;20227;-83
2022/06/04 01:46:11;;;;;;;5.23;4.47;;;;;;;;;;4931768;29;20246;-82
2022/06/04 01:48:40;;;;;;;11.10;4.70;;;;;;;;;;4915822;29;20290;-82
2022/06/04 01:51:10;;;;;;;7.83;6.83;;;;;;;;;;4903605;29;20196;-83
2022/06/04 01:53:40;;;;;;;9.47;7.00;;;;;;;;;;4887352;29;20204;-83
2022/06/04 01:56:11;;;;;;;11.30;7.07;;;;;;;;;;4903846;29;20204;-83
2022/06/04 01:58:43;;;;;;;6.47;4.50;;;;;;;;;;4898263;29;20215;-83
2022/06/04 02:01:14;;;;;;;11.33;5.63;;;;;;;;;;4898109;29;20216;-83
2022/06/04 02:03:45;;;;;;;9.93;5.13;;;;;;;;;;4881375;29;20208;-83
2022/06/04 02:06:16;;;;;;;9.80;8.00;;;;;;;;;;4881011;29;20243;-83
2022/06/04 02:08:46;;;;;;;10.37;7.47;;;;;;;;;;4898710;29;20207;-83
2022/06/04 02:11:19;;;;;;;9.33;4.63;;;;;;;;;;4905086;29;20219;-82
2022/06/04 02:13:50;;;;;;;7.57;5.03;;;;;;;;;;4894373;29;20204;-82
2022/06/04 02:16:21;;;;;;;11.20;7.20;;;;;;;;;;4881396;29;20220;-83
2022/06/04 02:18:51;;;;;;;11.70;8.90;;;;;;;;;;4914448;29;20220;-82
2022/06/04 02:21:19;;;;;;;14.30;9.47;;;;;;;;;;4884692;29;20200;-82
2022/06/04 02:23:49;;;;;;;5.67;3.90;;;;;;;;;;4916396;29;20242;-83
2022/06/04 02:26:18;;;;;;;12.37;6.23;;;;;;;;;;4893678;29;20231;-83
2022/06/04 02:28:47;;;;;;;7.27;5.50;;;;;;;;;;4918978;29;20260;-83
2022/06/04 02:31:23;;;;;;;9.47;8.37;;;;;;;;;;4895980;29;20200;-84
2022/06/04 02:33:54;;;;;;;10.30;5.63;;;;;;;;;;4930531;29;20289;-83
2022/06/04 02:36:27;;;;;;;8.07;3.83;;;;;;;;;;4895743;29;20211;-83
2022/06/04 02:39:01;;;;;;;4.33;3.80;;;;;;;;;;4902075;29;20250;-83
2022/06/04 02:41:32;;;;;;;16.73;5.33;;;;;;;;;;4903267;29;20200;-83
2022/06/04 02:44:03;;;;;;;5.07;4.57;;;;;;;;;;4914316;29;20294;-82
2022/06/04 02:46:35;;;;;;;12.07;8.33;;;;;;;;;;4889862;29;20199;-82
2022/06/04 02:49:06;;;;;;;9.33;4.80;;;;;;;;;;4934836;29;20298;-84
2022/06/04 02:51:36;;;;;;;6.67;5.63;;;;;;;;;;4899611;29;20274;-84
2022/06/04 02:54:07;;;;;;;8.47;5.20;;;;;;;;;;4910210;29;20222;-84
2022/06/04 02:56:38;;;;;;;6.97;4.43;;;;;;;;;;4918646;29;20203;-84
2022/06/04 02:59:08;;;;;;;6.57;5.97;;;;;;;;;;4902761;29;20203;-84
2022/06/04 03:01:40;;;;;;;5.70;4.67;;;;;;;;;;4916777;29;20208;-83
2022/06/04 03:04:09;;;;;;;7.67;5.13;;;;;;;;;;4909056;29;20222;-84
2022/06/04 03:06:38;;;;;;;13.60;6.90;;;;;;;;;;4915278;29;20254;-83
2022/06/04 03:09:08;;;;;;;11.47;4.97;;;;;;;;;;4891498;29;20199;-83
2022/06/04 03:11:41;;;;;;;10.47;5.63;;;;;;;;;;4906038;29;20205;-83
2022/06/04 03:14:09;;;;;;;11.37;5.67;;;;;;;;;;4915246;29;20215;-83
2022/06/04 03:16:40;;;;;;;10.60;5.93;;;;;;;;;;4900609;29;20200;-83
2022/06/04 03:19:09;;;;;;;9.63;6.10;;;;;;;;;;4915109;29;20215;-83
2022/06/04 03:21:37;;;;;;;8.17;6.83;;;;;;;;;;4927056;29;20212;-84
2022/06/04 03:24:06;;;;;;;13.20;8.00;;;;;;;;;;4934066;29;20196;-83
2022/06/04 03:26:35;;;;;;;9.57;5.40;;;;;;;;;;4922791;29;20208;-84
2022/06/04 03:29:03;;;;;;;9.23;7.70;;;;;;;;;;4895849;29;20204;-84
2022/06/04 03:31:32;;;;;;;8.27;5.10;;;;;;;;;;4883758;29;20290;-84
2022/06/04 03:34:02;;;;;;;6.53;4.50;;;;;;;;;;4915802;29;20208;-84
2022/06/04 03:36:30;;;;;;;9.23;5.87;;;;;;;;;;4918215;29;20210;-84
2022/06/04 03:39:00;;;;;;;9.13;5.00;;;;;;;;;;4916117;29;20211;-84
2022/06/04 03:41:28;;;;;;;12.10;8.13;;;;;;;;;;4914319;29;20279;-84
2022/06/04 03:43:57;;;;;;;4.40;4.00;;;;;;;;;;4883405;29;20236;-85
2022/06/04 03:46:27;;;;;;;8.17;5.90;;;;;;;;;;4914688;29;20200;-85
2022/06/04 03:48:55;;;;;;;9.93;6.00;;;;;;;;;;4923533;29;20210;-84
2022/06/04 03:51:28;;;;;;;10.73;4.70;;;;;;;;;;4914474;29;20271;-83
2022/06/04 03:53:56;;;;;;;3.47;2.97;;;;;;;;;;4883361;29;20216;-84
2022/06/04 03:56:26;;;;;;;10.97;6.20;;;;;;;;;;4884538;29;20215;-83
2022/06/04 03:58:54;;;;;;;8.17;7.40;;;;;;;;;;4918428;29;20214;-83
2022/06/04 04:01:23;;;;;;;5.33;4.83;;;;;;;;;;4904830;29;20222;-84
2022/06/04 04:03:52;;;;;;;7.97;5.50;;;;;;;;;;4905706;29;20215;-84
2022/06/04 04:06:22;;;;;;;7.67;6.13;;;;;;;;;;4905716;29;20248;-84
2022/06/04 04:08:52;;;;;;;5.43;4.53;;;;;;;;;;4882774;29;20449;-84
2022/06/04 04:11:22;;;;;;;7.30;5.47;;;;;;;;;;4914454;29;20204;-84
2022/06/04 04:13:51;;;;;;;9.40;5.57;;;;;;;;;;4899194;29;20218;-83
2022/06/04 04:16:21;;;;;;;7.17;4.47;;;;;;;;;;4907416;29;20203;-83
2022/06/04 04:18:49;;;;;;;21.07;4.70;;;;;;;;;;4903869;29;20207;-83
2022/06/04 04:21:22;;;;;;;4.37;3.60;;;;;;;;;;4894255;29;20219;-83
2022/06/04 04:23:51;;;;;;;5.53;5.03;;;;;;;;;;4882597;29;20211;-83
2022/06/04 04:26:20;;;;;;;8.07;4.00;;;;;;;;;;4882924;29;20218;-83
2022/06/04 04:28:49;;;;;;;9.93;5.97;;;;;;;;;;4899124;29;20227;-83
2022/06/04 04:31:19;;;;;;;4.50;3.97;;;;;;;;;;4898903;29;20205;-84
2022/06/04 04:33:48;;;;;;;5.33;2.80;;;;;;;;;;4898873;29;20235;-84
2022/06/04 04:36:16;;;;;;;7.90;5.30;;;;;;;;;;4899495;29;20214;-84
2022/06/04 04:38:45;;;;;;;4.20;3.13;;;;;;;;;;4907226;29;20227;-84
2022/06/04 04:41:16;;;;;;;13.17;6.77;;;;;;;;;;4916416;29;20246;-84
2022/06/04 04:43:44;;;;;;;4.87;3.10;;;;;;;;;;4930549;29;20232;-84
2022/06/04 04:46:14;;;;;;;4.80;4.30;;;;;;;;;;4917383;29;20211;-84
2022/06/04 04:48:44;;;;;;;10.03;5.37;;;;;;;;;;4909219;29;20283;-84
2022/06/04 04:51:13;;;;;;;4.20;3.70;;;;;;;;;;4926899;29;20204;-83
2022/06/04 04:53:41;;;;;;;7.93;4.87;;;;;;;;;;4898782;29;20212;-84
2022/06/04 04:56:10;;;;;;;6.07;3.90;;;;;;;;;;4911168;29;20207;-84
2022/06/04 04:58:40;;;;;;;5.23;4.27;;;;;;;;;;4887639;29;20212;-84
2022/06/04 05:01:14;;;;;;;9.10;4.80;;;;;;;;;;4916478;29;20293;-84
2022/06/04 05:03:44;;;;;;;9.60;6.63;;;;;;;;;;4897836;29;20208;-84
2022/06/04 05:06:13;;;;;;;7.30;4.10;;;;;;;;;;4926590;28;20246;-84
2022/06/04 05:08:42;;;;;;;4.87;3.03;;;;;;;;;;4904014;29;20226;-84
2022/06/04 05:11:11;;;;;;;6.67;5.47;;;;;;;;;;4917571;29;20211;-84
2022/06/04 05:13:41;;;;;;;8.10;5.87;;;;;;;;;;4913387;29;20202;-84
2022/06/04 05:16:09;;;;;;;7.20;4.70;;;;;;;;;;4881571;29;20256;-84
2022/06/04 05:18:38;;;;;;;4.73;3.90;;;;;;;;;;4898417;29;20207;-84
2022/06/04 05:21:11;;;;;;;8.33;5.23;;;;;;;;;;4913109;29;20273;-84
2022/06/04 05:23:39;;;;;;;6.43;5.10;;;;;;;;;;4896453;29;20334;-84
2022/06/04 05:26:08;;;;;;;5.77;4.07;;;;;;;;;;4892806;29;20212;-84
2022/06/04 05:28:36;;;;;;;5.77;4.07;;;;;;;;;;4894771;29;20211;-84
2022/06/04 05:31:06;;;;;;;4.73;3.73;;;;;;;;;;4881790;29;20196;-84
2022/06/04 05:33:34;;;;;;;9.53;4.27;;;;;;;;;;4881705;29;20225;-84
2022/06/04 05:36:03;;;;;;;5.10;4.30;;;;;;;;;;4912777;29;20209;-84
2022/06/04 05:38:34;;;;;;;8.67;5.17;;;;;;;;;;4897441;29;20245;-84
2022/06/04 05:41:04;;;;;;;5.23;2.77;;;;;;;;;;4911369;29;20226;-84
2022/06/04 05:43:32;;;;;;;5.53;4.83;;;;;;;;;;4891185;29;20243;-84
2022/06/04 05:46:01;;;;;;;9.00;4.67;;;;;;;;;;4903948;29;20276;-84
2022/06/04 05:48:32;;;;;;;9.90;4.73;;;;;;;;;;4905749;29;20204;-84
2022/06/04 05:51:00;;;;;;;8.23;4.57;;;;;;;;;;4904079;29;20264;-84
2022/06/04 05:53:29;;;;;;;3.63;2.83;;;;;;;;;;4916446;29;20193;-84
2022/06/04 05:55:57;;;;;;;4.80;3.20;;;;;;;;;;4885301;29;20219;-84
2022/06/04 05:58:26;;;;;;;4.50;3.77;;;;;;;;;;4916721;29;20201;-83
2022/06/04 06:01:00;;;;;;;10.43;3.83;;;;;;;;;;4884935;29;20241;-84
2022/06/04 06:03:28;;;;;;;5.17;3.37;;;;;;;;;;4885185;29;20212;-84
2022/06/04 06:05:59;;;;;;;5.30;4.57;;;;;;;;;;4925474;29;20247;-83
2022/06/04 06:08:27;;;;;;;4.80;3.43;;;;;;;;;;4904910;29;20204;-83
2022/06/04 06:10:55;;;;;;;5.50;4.33;;;;;;;;;;4901554;29;20206;-83
2022/06/04 06:13:24;;;;;;;4.97;3.80;;;;;;;;;;4885243;29;20219;-84
2022/06/04 06:15:52;;;;;;;5.07;3.80;;;;;;;;;;4884944;29;20234;-84
2022/06/04 06:18:21;;;;;;;6.83;4.17;;;;;;;;;;4898060;29;20291;-84
2022/06/04 06:20:49;;;;;;;4.60;3.63;;;;;;;;;;4893313;29;20204;-84
2022/06/04 06:23:24;;;;;;;6.67;3.47;;;;;;;;;;4922749;29;20223;-84
2022/06/04 06:25:52;;;;;;;8.20;3.90;;;;;;;;;;4906661;29;20225;-84
2022/06/04 06:28:20;;;;;;;4.87;2.87;;;;;;;;;;4935003;29;20209;-83
2022/06/04 06:30:56;;;;;;;8.77;4.60;;;;;;;;;;4901169;29;20203;-84
2022/06/04 06:33:25;;;;;;;9.40;3.50;;;;;;;;;;4927609;29;20205;-84
2022/06/04 06:35:57;;;;;;;5.97;3.87;;;;;;;;;;4905573;29;20253;-84
2022/06/04 06:38:27;;;;;;;4.93;3.13;;;;;;;;;;4893162;29;20198;-83
2022/06/04 06:40:58;;;;;;;5.13;4.10;;;;;;;;;;4914740;29;20221;-83
2022/06/04 06:43:32;;;;;;;6.30;3.63;;;;;;;;;;4893556;29;20233;-83
2022/06/04 06:46:04;;;;;;;3.23;2.87;;;;;;;;;;4890293;29;20246;-84
2022/06/04 06:48:33;;;;;;;5.80;3.53;;;;;;;;;;4884369;29;20474;-83
2022/06/04 06:51:06;;;;;;;4.53;3.77;;;;;;;;;;4896658;29;20210;-84
2022/06/04 06:53:35;;;;;;;2.53;2.23;;;;;;;;;;4884336;29;20222;-84
2022/06/04 06:56:11;;;;;;;5.17;4.30;;;;;;;;;;4895989;29;20216;-83
2022/06/04 06:58:39;;;;;;;3.63;2.10;;;;;;;;;;4934653;29;20202;-84
2022/06/04 07:01:08;;;;;;;5.53;4.93;;;;;;;;;;4907186;29;20198;-84
2022/06/04 07:03:37;;;;;;;3.03;2.70;;;;;;;;;;4912503;29;20286;-84
2022/06/04 07:06:07;;;;;;;3.43;3.13;;;;;;;;;;4894234;29;20241;-83
2022/06/04 07:08:37;;;;;;;3.33;3.03;;;;;;;;;;4915330;29;20232;-83
2022/06/04 07:11:05;;;;;;;4.40;4.00;;;;;;;;;;4900493;29;20221;-84
2022/06/04 07:13:34;;;;;;;3.10;2.80;;;;;;;;;;4897013;29;20212;-84
2022/06/04 07:16:02;;;;;;;4.63;3.70;;;;;;;;;;4923787;29;20219;-84
2022/06/04 07:18:31;;;;;;;6.80;3.23;;;;;;;;;;4918306;29;20229;-83
2022/06/04 07:20:59;;;;;;;4.80;3.20;;;;;;;;;;4919270;29;20212;-83
2022/06/04 07:23:28;;;;;;;4.07;3.60;;;;;;;;;;4919209;29;20226;-83
2022/06/04 07:25:57;;;;;;;4.27;3.87;;;;;;;;;;4884025;29;20554;-83
2022/06/04 07:28:26;;;;;;;4.67;2.80;;;;;;;;;;4883908;29;20205;-84
2022/06/04 07:30:56;;;;;;;6.70;3.77;;;;;;;;;;4900281;29;20202;-83
2022/06/04 07:33:25;;;;;;;6.47;3.60;;;;;;;;;;4894793;29;20212;-83
2022/06/04 07:35:54;;;;;;;5.67;3.67;;;;;;;;;;4916107;29;20202;-83
2022/06/04 07:38:22;;;;;;;3.53;2.83;;;;;;;;;;4900167;29;20268;-84
2022/06/04 07:40:51;;;;;;;5.97;4.37;;;;;;;;;;4886131;29;20193;-84
2022/06/04 07:43:20;;;;;;;5.73;4.67;;;;;;;;;;4913380;29;20261;-84
2022/06/04 07:45:49;;;;;;;2.30;2.10;;;;;;;;;;4906151;29;20265;-84
2022/06/04 07:48:17;;;;;;;6.07;2.97;;;;;;;;;;4900057;29;20213;-84
2022/06/04 07:50:46;;;;;;;5.53;3.77;;;;;;;;;;4883656;29;20216;-84
2022/06/04 07:53:14;;;;;;;4.23;3.10;;;;;;;;;;4885967;29;20204;-84
2022/06/04 07:55:43;;;;;;;7.23;3.00;;;;;;;;;;4917814;29;20212;-84
2022/06/04 07:58:11;;;;;;;7.07;4.10;;;;;;;;;;4933657;29;20297;-84
2022/06/04 08:00:41;;;;;;;4.73;3.13;;;;;;;;;;4925869;29;20214;-84
2022/06/04 08:03:10;;;;;;;5.83;3.43;;;;;;;;;;4928591;29;20222;-84
2022/06/04 08:05:38;;;;;;;2.90;2.70;;;;;;;;;;4918294;29;20292;-84
2022/06/04 08:08:10;;;;;;;6.60;3.97;;;;;;;;;;4933724;28;20327;-84
2022/06/04 08:10:38;;;;;;;3.93;3.33;;;;;;;;;;4933258;29;20206;-84
2022/06/04 08:13:07;;;;;;;11.90;3.77;;;;;;;;;;4906242;29;20206;-84
2022/06/04 08:15:36;;;;;;;4.20;3.47;;;;;;;;;;4882299;29;20295;-85
2022/06/04 08:18:05;;;;;;;2.73;2.47;;;;;;;;;;4893461;29;20289;-84
2022/06/04 08:20:34;;;;;;;5.30;3.90;;;;;;;;;;4888698;29;20238;-84
2022/06/04 08:23:02;;;;;;;2.60;2.40;;;;;;;;;;4907340;29;20210;-84
2022/06/04 08:25:30;;;;;;;2.53;2.27;;;;;;;;;;4901159;29;20210;-84
2022/06/04 08:27:59;;;;;;;2.90;2.70;;;;;;;;;;4917928;29;20210;-85
2022/06/04 08:30:27;;;;;;;3.77;2.53;;;;;;;;;;4903165;29;20210;-83
2022/06/04 08:32:56;;;;;;;2.97;1.90;;;;;;;;;;4882376;29;20211;-83
2022/06/04 08:35:26;;;;;;;39.13;3.67;;;;;;;;;;4882529;29;20215;-83
2022/06/04 08:37:54;;;;;;;2.13;2.03;;;;;;;;;;4882159;29;20219;-84
2022/06/04 08:40:26;;;;;;;6.13;3.50;;;;;;;;;;4911684;29;20211;-83
2022/06/04 08:43:03;;;;;;;3.80;3.40;;;;;;;;;;4914564;29;20219;-84
2022/06/04 08:45:31;;;;;;;2.63;2.30;;;;;;;;;;4918088;29;20301;-84
2022/06/04 08:48:00;;;;;;;6.00;3.57;;;;;;;;;;4930368;29;20215;-84
2022/06/04 08:50:35;;;;;;;3.47;2.90;;;;;;;;;;4890354;29;20201;-84
2022/06/04 08:53:06;;;;;;;4.07;3.47;;;;;;;;;;4914717;29;20213;-84
2022/06/04 08:58:29;;;;;;;3.63;2.87;;;;;;;;;;4882128;29;20298;-84
2022/06/04 09:00:59;;;;;;;3.80;2.80;;;;;;;;;;4898767;29;20233;-84
2022/06/04 09:03:32;;;;;;;2.93;2.67;;;;;;;;;;4898325;29;20225;-84
2022/06/04 09:06:09;;;;;;;4.03;3.17;;;;;;;;;;4907862;29;20210;-84
2022/06/04 09:08:43;;;;;;;3.23;2.93;;;;;;;;;;4926367;29;20212;-84
2022/06/04 09:11:13;;;;;;;4.53;2.97;;;;;;;;;;4923873;29;20202;-84
2022/06/04 09:13:43;;;;;;;3.80;2.77;;;;;;;;;;4899597;29;20200;-84
2022/06/04 09:16:17;;;;;;;3.57;3.00;;;;;;;;;;4913380;29;20221;-84
2022/06/04 09:18:49;;;;;;;3.50;2.47;;;;;;;;;;4914993;29;20277;-84
2022/06/04 09:21:18;;;;;;;5.90;3.93;;;;;;;;;;4916147;29;20222;-84
2022/06/04 09:23:48;;;;;;;2.87;2.17;;;;;;;;;;4916505;29;20219;-84
2022/06/04 09:26:24;;;;;;;3.23;2.90;;;;;;;;;;4907799;29;20212;-84
2022/06/04 09:28:57;;;;;;;2.97;2.17;;;;;;;;;;4898521;29;20209;-84
2022/06/04 09:31:30;;;;;;;3.13;2.50;;;;;;;;;;4898384;29;20209;-84
2022/06/04 09:34:03;;;;;;;3.40;1.97;;;;;;;;;;4881512;29;20207;-84
2022/06/04 09:36:36;;;;;;;7.83;3.13;;;;;;;;;;4898210;29;20209;-84
2022/06/04 09:39:07;;;;;;;4.47;2.40;;;;;;;;;;4884789;29;20200;-84
2022/06/04 09:41:38;;;;;;;2.53;2.33;;;;;;;;;;4911340;29;20256;-84
2022/06/04 09:44:08;;;;;;;3.80;2.50;;;;;;;;;;4910310;29;20329;-85
2022/06/04 09:46:36;;;;;;;8.30;2.90;;;;;;;;;;4911527;29;20200;-85
2022/06/04 09:49:13;;;;;;;4.30;3.43;;;;;;;;;;4909255;29;20208;-86
2022/06/04 09:51:44;;;;;;;5.57;2.80;;;;;;;;;;4894974;29;20206;-85
2022/06/04 09:54:23;;;;;;;4.93;2.20;;;;;;;;;;4893320;29;20210;-85
2022/06/04 09:56:53;;;;;;;6.93;2.47;;;;;;;;;;4895481;29;20203;-86
2022/06/04 09:59:24;;;;;;;7.63;4.10;;;;;;;;;;4886782;29;20215;-86
2022/06/04 10:01:53;;;;;;;5.77;4.33;;;;;;;;;;4908126;29;20208;-84
2022/06/04 10:04:36;;;;;;;4.30;3.27;;;;;;;;;;4894725;29;20303;-84
2022/06/04 10:07:10;;;;;;;2.97;2.20;;;;;;;;;;4889510;29;20246;-85
2022/06/04 10:09:58;;;;;;;4.93;3.57;;;;;;;;;;4926967;29;20239;-85
2022/06/04 10:15:22;;;;;;;3.50;3.20;;;;;;;;;;4913012;29;20218;-84
2022/06/04 10:17:59;;;;;;;4.30;2.80;;;;;;;;;;4925305;29;20195;-85
2022/06/04 10:20:28;;;;;;;4.73;3.10;;;;;;;;;;4914525;29;20207;-86
2022/06/04 10:22:57;;;;;;;3.53;3.23;;;;;;;;;;4901401;29;20221;-85
2022/06/04 10:25:30;;;;;;;3.83;2.50;;;;;;;;;;4915247;29;20209;-85
2022/06/04 10:28:04;;;;;;;3.20;2.80;;;;;;;;;;4929605;29;20215;-86
2022/06/04 10:30:39;;;;;;;7.93;4.70;;;;;;;;;;4900354;29;20220;-86
2022/06/04 10:33:15;;;;;;;4.27;2.80;;;;;;;;;;4910187;29;20211;-86
2022/06/04 10:35:48;;;;;;;5.63;3.07;;;;;;;;;;4931655;29;20237;-86
2022/06/04 10:38:30;;;;;;;3.47;2.87;;;;;;;;;;4901888;29;20215;-86
2022/06/04 10:41:05;;;;;;;2.50;2.30;;;;;;;;;;4934991;29;20209;-86
2022/06/04 10:44:10;;;;;;;3.17;1.97;;;;;;;;;;4931999;29;20226;-84
2022/06/04 10:46:41;;;;;;;4.87;2.60;;;;;;;;;;4930396;29;20291;-85
2022/06/04 10:49:18;;;;;;;3.63;3.33;;;;;;;;;;4914374;29;20303;-85
2022/06/04 10:51:52;;;;;;;4.67;3.87;;;;;;;;;;4948607;29;20218;-84
2022/06/04 10:54:27;;;;;;;5.60;2.37;;;;;;;;;;4934893;29;20200;-85
2022/06/04 10:56:58;;;;;;;5.60;2.57;;;;;;;;;;4903516;29;20214;-85
2022/06/04 10:59:30;;;;;;;3.43;2.80;;;;;;;;;;4934519;29;20215;-84
2022/06/04 11:02:01;;;;;;;2.53;2.33;;;;;;;;;;4916222;29;20287;-86
2022/06/04 11:04:35;;;;;;;4.77;3.93;;;;;;;;;;4945679;29;20274;-84
2022/06/04 11:07:09;;;;;;;6.10;2.67;;;;;;;;;;4909645;29;20239;-84
2022/06/04 11:09:41;;;;;;;5.00;2.23;;;;;;;;;;4900193;29;20216;-82
2022/06/04 11:12:15;;;;;;;3.00;2.33;;;;;;;;;;4884082;29;20245;-83
2022/06/04 11:14:47;;;;;;;4.17;3.47;;;;;;;;;;4884049;29;20247;-85
2022/06/04 11:17:18;;;;;;;3.87;3.27;;;;;;;;;;4896926;29;20211;-84
2022/06/04 11:19:53;;;;;;;3.63;2.93;;;;;;;;;;4900736;29;20205;-85
2022/06/04 11:22:25;;;;;;;6.90;3.93;;;;;;;;;;4883965;29;20213;-85
2022/06/04 11:24:58;;;;;;;6.27;4.30;;;;;;;;;;4883608;29;20228;-85
2022/06/04 11:27:32;;;;;;;5.27;2.70;;;;;;;;;;4897086;29;20219;-85
2022/06/04 11:30:01;;;;;;;7.20;4.00;;;;;;;;;;4894881;29;20219;-85
2022/06/04 11:32:35;;;;;;;5.67;3.77;;;;;;;;;;4900808;29;20210;-85
2022/06/04 11:35:13;;;;;;;4.23;3.27;;;;;;;;;;4926133;29;20302;-86
2022/06/04 11:37:54;;;;;;;4.87;3.33;;;;;;;;;;4902526;29;20208;-86
2022/06/04 11:40:29;;;;;;;4.57;2.83;;;;;;;;;;4906675;29;20241;-85
2022/06/04 11:43:00;;;;;;;4.17;3.17;;;;;;;;;;4903838;29;20240;-85
2022/06/04 11:45:46;;;;;;;3.63;2.50;;;;;;;;;;4908899;29;20255;-85
2022/06/04 11:48:23;;;;;;;5.20;3.17;;;;;;;;;;4901874;29;20211;-86
2022/06/04 11:50:56;;;;;;;5.13;3.47;;;;;;;;;;4882734;29;20302;-86
2022/06/04 11:53:28;;;;;;;3.77;3.33;;;;;;;;;;4913393;29;20206;-86
2022/06/04 11:56:00;;;;;;;4.53;3.60;;;;;;;;;;4914893;29;20202;-86
2022/06/04 11:58:49;;;;;;;3.53;3.23;;;;;;;;;;4904230;29;20217;-86
2022/06/04 12:01:20;;;;;;;6.03;3.40;;;;;;;;;;4898019;29;20221;-86
2022/06/04 12:03:52;;;;;;;3.70;2.83;;;;;;;;;;4907930;29;20264;-86
2022/06/04 12:06:24;;;;;;;4.50;3.13;;;;;;;;;;4921516;29;20243;-86
2022/06/04 12:08:56;;;;;;;3.60;2.57;;;;;;;;;;4901758;29;20220;-86
2022/06/04 12:11:30;;;;;;;5.53;3.50;;;;;;;;;;4883138;29;20214;-86
2022/06/04 12:14:02;;;;;;;5.50;3.20;;;;;;;;;;4885885;29;20207;-86
2022/06/04 12:16:33;;;;;;;3.10;2.77;;;;;;;;;;4899661;29;20216;-86
2022/06/04 12:19:04;;;;;;;4.00;3.40;;;;;;;;;;4883220;29;20251;-86
2022/06/04 12:24:32;;;;;;;3.13;2.77;;;;;;;;;;4890352;29;20218;-86
2022/06/04 12:27:19;;;;;;;5.97;2.97;;;;;;;;;;4917392;29;20209;-86
2022/06/04 12:29:48;;;;;;;2.43;1.80;;;;;;;;;;4892583;29;20221;-86
2022/06/04 12:32:25;;;;;;;4.30;3.90;;;;;;;;;;4918134;29;20245;-86
2022/06/04 12:35:03;;;;;;;3.10;2.60;;;;;;;;;;4932899;29;20195;-86
2022/06/04 12:37:33;;;;;;;6.23;2.97;;;;;;;;;;4900072;29;20281;-86
2022/06/04 12:40:15;;;;;;;2.97;2.67;;;;;;;;;;4899094;29;20205;-86
2022/06/04 12:42:46;;;;;;;5.33;2.73;;;;;;;;;;4882476;29;20219;-85
2022/06/04 12:45:35;;;;;;;6.07;1.60;;;;;;;;;;4897824;29;20215;-86
2022/06/04 12:48:18;;;;;;;3.47;2.50;;;;;;;;;;4916434;29;20206;-86
2022/06/04 12:50:49;;;;;;;2.27;2.07;;;;;;;;;;4906827;29;20220;-85
2022/06/04 12:53:20;;;;;;;4.83;3.37;;;;;;;;;;4886025;29;20209;-86
2022/06/04 12:55:50;;;;;;;4.10;3.07;;;;;;;;;;4932778;29;20223;-86
2022/06/04 12:58:29;;;;;;;3.67;2.17;;;;;;;;;;4932842;29;20294;-86
2022/06/04 13:00:59;;;;;;;3.10;2.80;;;;;;;;;;4906354;29;20226;-84
2022/06/04 13:03:35;;;;;;;4.30;3.07;;;;;;;;;;4912170;29;20233;-85
2022/06/04 13:06:05;;;;;;;5.33;2.93;;;;;;;;;;4892056;29;20225;-85
2022/06/04 13:08:40;;;;;;;5.13;3.97;;;;;;;;;;4900458;29;20211;-86
2022/06/04 13:11:16;;;;;;;3.97;3.47;;;;;;;;;;4913227;29;20303;-84
2022/06/04 13:13:49;;;;;;;4.23;3.40;;;;;;;;;;4898667;29;20209;-85
2022/06/04 13:16:21;;;;;;;3.30;2.27;;;;;;;;;;4923956;29;20234;-85
2022/06/04 13:18:56;;;;;;;4.20;3.50;;;;;;;;;;4917772;29;20288;-85
2022/06/04 13:21:24;;;;;;;4.07;2.83;;;;;;;;;;4916588;29;20202;-86
2022/06/04 13:23:58;;;;;;;4.60;2.70;;;;;;;;;;4915274;29;20207;-85
2022/06/04 13:26:31;;;;;;;7.17;3.43;;;;;;;;;;4913227;29;20233;-85
2022/06/04 13:29:02;;;;;;;2.17;1.97;;;;;;;;;;4926867;29;20218;-85
2022/06/04 13:31:31;;;;;;;5.03;2.93;;;;;;;;;;4881895;29;20291;-85
2022/06/04 13:34:13;;;;;;;4.47;2.77;;;;;;;;;;4911631;29;20212;-85
2022/06/04 13:36:44;;;;;;;2.40;2.20;;;;;;;;;;4882130;29;20208;-85
2022/06/04 13:39:16;;;;;;;5.03;3.03;;;;;;;;;;4898371;29;20200;-85
2022/06/04 13:42:02;;;;;;;3.30;2.77;;;;;;;;;;4892070;29;20213;-85
2022/06/04 13:44:33;;;;;;;5.00;3.03;;;;;;;;;;4897968;29;20240;-85
2022/06/04 13:47:08;;;;;;;4.67;2.23;;;;;;;;;;4881940;29;20221;-85
2022/06/04 13:49:37;;;;;;;3.00;2.07;;;;;;;;;;4898982;29;20234;-85
2022/06/04 13:52:11;;;;;;;2.17;1.70;;;;;;;;;;4898782;29;20213;-85
2022/06/04 13:54:41;;;;;;;5.63;3.57;;;;;;;;;;4899369;29;20215;-85
2022/06/04 13:57:15;;;;;;;6.80;3.43;;;;;;;;;;4910511;29;20203;-85
2022/06/04 13:59:46;;;;;;;4.67;3.23;;;;;;;;;;4881850;29;20213;-85
2022/06/04 14:02:16;;;;;;;2.87;2.27;;;;;;;;;;4888881;29;20208;-85
2022/06/04 14:07:35;;;;;;;2.83;2.47;;;;;;;;;;4902481;29;20237;-85
2022/06/04 14:10:04;;;;;;;3.53;2.83;;;;;;;;;;4913105;29;20210;-85
2022/06/04 14:12:43;;;;;;;4.67;2.63;;;;;;;;;;4891046;29;20293;-85
2022/06/04 14:15:21;;;;;;;6.00;3.97;;;;;;;;;;4933920;29;20210;-85
2022/06/04 14:18:10;;;;;;;4.93;4.13;;;;;;;;;;4916610;29;20212;-86
2022/06/04 14:20:44;;;;;;;2.63;2.43;;;;;;;;;;4901828;29;20218;-85
2022/06/04 14:23:20;;;;;;;4.47;3.30;;;;;;;;;;4901862;29;20209;-85
2022/06/04 14:25:53;;;;;;;5.47;4.10;;;;;;;;;;4884915;29;20312;-85
2022/06/04 14:28:36;;;;;;;2.90;2.63;;;;;;;;;;4916535;29;20205;-85
2022/06/04 14:31:10;;;;;;;3.47;3.17;;;;;;;;;;4913514;29;20224;-86
2022/06/04 14:33:39;;;;;;;4.53;2.40;;;;;;;;;;4916599;29;20200;-85
2022/06/04 14:36:08;;;;;;;5.03;2.80;;;;;;;;;;4888715;29;20206;-85
2022/06/04 14:38:37;;;;;;;5.97;3.20;;;;;;;;;;4897252;29;20211;-85
2022/06/04 14:41:12;;;;;;;4.40;3.87;;;;;;;;;;4915108;29;20297;-85
2022/06/04 14:43:55;;;;;;;2.47;2.17;;;;;;;;;;4891911;29;20235;-86
2022/06/04 14:46:39;;;;;;;2.97;2.67;;;;;;;;;;4906937;29;20211;-86
2022/06/04 14:49:15;;;;;;;4.50;3.50;;;;;;;;;;4915992;29;20204;-85
2022/06/04 14:51:52;;;;;;;3.07;2.77;;;;;;;;;;4884615;29;20271;-85
2022/06/04 14:54:21;;;;;;;4.60;3.17;;;;;;;;;;4884715;29;20222;-86
2022/06/04 14:57:13;;;;;;;4.27;3.63;;;;;;;;;;4906093;29;20199;-86
2022/06/04 14:59:59;;;;;;;6.63;4.57;;;;;;;;;;4906400;29;20220;-86
2022/06/04 15:02:48;;;;;;;5.00;2.70;;;;;;;;;;4915730;29;20217;-85
2022/06/04 15:05:24;;;;;;;5.20;2.87;;;;;;;;;;4913423;29;20214;-86
2022/06/04 15:08:02;;;;;;;3.63;2.47;;;;;;;;;;4901072;29;20289;-86
2022/06/04 15:10:33;;;;;;;3.23;2.17;;;;;;;;;;4900923;29;20219;-86
2022/06/04 15:13:06;;;;;;;7.40;2.47;;;;;;;;;;4884174;29;20231;-86
2022/06/04 15:15:43;;;;;;;3.57;2.20;;;;;;;;;;4915829;29;20208;-86
2022/06/04 15:18:18;;;;;;;4.03;2.67;;;;;;;;;;4896256;29;20203;-86
2022/06/04 15:20:55;;;;;;;5.10;3.87;;;;;;;;;;4902552;29;20215;-86
2022/06/04 15:23:30;;;;;;;4.13;3.47;;;;;;;;;;4928596;29;20211;-86
2022/06/04 15:26:01;;;;;;;4.27;3.37;;;;;;;;;;4894228;29;20226;-86
2022/06/04 15:34:08;;;;;;;6.73;4.33;;;;;;;;;;4915874;29;20210;-87